createdAt,value
2023-05-02T00:03:41.593Z,8.6
2023-05-02T00:10:01.731Z,8.6
2023-05-02T00:16:24.562Z,5.4
2023-05-02T00:22:44.525Z,5.4
2023-05-02T00:29:07.620Z,8.1
2023-05-02T00:35:27.641Z,8.1
2023-05-02T00:41:50.614Z,6.8
2023-05-02T00:48:10.529Z,6.8
2023-05-02T00:54:33.592Z,9.1
2023-05-02T01:00:53.533Z,9.1
2023-05-02T01:07:16.589Z,9.5
2023-05-02T01:13:36.519Z,9.5
2023-05-02T01:19:59.697Z,9.8
2023-05-02T01:26:19.536Z,9.8
2023-05-02T01:32:42.598Z,10.9
2023-05-02T01:39:02.506Z,10.9
2023-05-02T01:45:25.534Z,17.9
2023-05-02T01:51:45.541Z,17.9
2023-05-02T01:58:08.572Z,17.4
2023-05-02T02:04:28.551Z,17.4
2023-05-02T02:10:51.602Z,14.5
2023-05-02T02:17:11.624Z,14.5
2023-05-02T02:23:34.551Z,14.4
2023-05-02T02:29:54.673Z,14.4
2023-05-02T02:36:17.547Z,17.9
2023-05-02T02:42:37.547Z,17.9
2023-05-02T02:49:00.590Z,15
2023-05-02T02:55:20.533Z,15
2023-05-02T03:01:43.650Z,17.6
2023-05-02T03:08:03.528Z,17.6
2023-05-02T03:14:26.544Z,19.7
2023-05-02T03:36:39.452Z,18.9
2023-05-02T03:42:59.495Z,18.9
2023-05-02T03:49:22.634Z,19.1
2023-05-02T03:55:42.502Z,19.1
2023-05-02T04:02:05.633Z,12.4
2023-05-02T04:08:25.514Z,12.4
2023-05-02T04:14:48.543Z,15.1
2023-05-02T04:21:08.711Z,15.1
2023-05-02T04:27:31.506Z,16.4
2023-05-02T04:33:51.534Z,16.4
2023-05-02T04:40:14.518Z,12.5
2023-05-02T04:46:34.580Z,12.5
2023-05-02T04:52:57.720Z,15.3
2023-05-02T04:59:17.515Z,15.3
2023-05-02T05:05:40.711Z,15.8
2023-05-02T05:12:00.615Z,15.8
2023-05-02T05:18:23.551Z,16.1
2023-05-02T05:24:43.550Z,16.1
2023-05-02T05:31:06.574Z,20.1
2023-05-02T05:37:26.623Z,20.1
2023-05-02T05:43:49.550Z,17.7
2023-05-02T05:50:09.612Z,17.7
2023-05-02T05:56:32.586Z,17.3
2023-05-02T06:02:52.635Z,17.3
2023-05-02T06:09:15.658Z,15.3
2023-05-02T06:15:35.516Z,15.3
2023-05-02T06:21:58.577Z,12.4
2023-05-02T06:28:18.549Z,12.4
2023-05-02T06:34:41.624Z,16.1
2023-05-02T06:41:01.752Z,16.1
2023-05-02T06:47:24.581Z,13.4
2023-05-02T06:53:44.618Z,13.4
2023-05-02T07:00:07.559Z,13.7
2023-05-02T07:06:27.621Z,13.7
2023-05-02T07:12:50.518Z,7.9
2023-05-02T07:19:10.531Z,7.9
2023-05-02T07:25:33.577Z,12
2023-05-02T07:31:53.520Z,12
2023-05-02T07:38:16.553Z,12.4
2023-05-02T07:44:36.541Z,12.4
2023-05-02T07:50:59.551Z,10.2
2023-05-02T07:57:19.545Z,10.2
2023-05-02T08:03:42.592Z,8.3
2023-05-02T08:10:03.055Z,8.3
2023-05-02T08:16:25.770Z,10.5
2023-05-02T08:22:45.866Z,10.5
2023-05-02T08:29:08.570Z,15.3
2023-05-02T08:35:28.485Z,15.3
2023-05-02T08:58:34.734Z,10.3
2023-05-02T09:04:58.122Z,10.3
2023-05-02T09:11:20.193Z,10.3
2023-05-02T09:17:43.532Z,2.9
2023-05-02T09:24:03.667Z,2.9
2023-05-02T09:30:26.516Z,2.6
2023-05-02T09:36:46.649Z,2.6
2023-05-02T09:43:09.818Z,4
2023-05-02T09:49:29.508Z,4
2023-05-02T09:55:52.570Z,4.4
2023-05-02T10:02:12.673Z,4.4
2023-05-02T10:08:35.547Z,3.8
2023-05-02T10:14:55.567Z,3.8
2023-05-02T10:21:18.521Z,7.1
2023-05-02T10:27:38.602Z,7.1
2023-05-02T10:34:01.615Z,1.2
2023-05-02T10:40:21.584Z,1.2
2023-05-02T10:46:44.592Z,2.6
2023-05-02T10:53:04.523Z,2.6
2023-05-02T10:59:27.616Z,4.4
2023-05-02T11:05:47.521Z,4.4
2023-05-02T11:12:10.590Z,4.3
2023-05-02T11:18:30.505Z,4.3
2023-05-02T11:24:53.568Z,3
2023-05-02T11:31:13.579Z,3
2023-05-02T11:37:36.526Z,4.3
2023-05-02T11:43:56.674Z,4.3
2023-05-02T11:50:19.580Z,3.6
2023-05-02T11:56:39.507Z,3.6
2023-05-02T12:03:02.560Z,4.4
2023-05-02T12:09:22.562Z,4.4
2023-05-02T12:15:45.604Z,4.1
2023-05-02T12:22:05.487Z,4.1
2023-05-02T12:28:28.664Z,4.7
2023-05-02T12:34:48.500Z,4.7
2023-05-02T12:41:11.516Z,5
2023-05-02T12:47:31.630Z,5
2023-05-02T12:53:54.755Z,4.9
2023-05-02T13:00:14.572Z,4.9
2023-05-02T13:06:37.683Z,4.4
2023-05-02T13:12:57.533Z,4.4
2023-05-02T13:19:20.689Z,7.1
2023-05-02T13:25:40.526Z,7.1
2023-05-02T13:32:03.564Z,4.7
2023-05-02T13:38:23.510Z,4.7
2023-05-02T13:44:46.581Z,2.1
2023-05-02T13:51:06.561Z,2.1
2023-05-02T13:57:29.522Z,2.7
2023-05-02T14:14:12.123Z,2.9
2023-05-02T14:20:34.022Z,7.1
2023-05-02T14:26:53.761Z,7.1
2023-05-02T14:33:16.646Z,7.1
2023-05-02T14:39:36.514Z,7.1
2023-05-02T14:45:59.562Z,3.3
2023-05-02T14:52:19.615Z,3.3
2023-05-02T14:58:42.523Z,5.6
2023-05-02T15:05:02.831Z,5.6
2023-05-02T15:11:25.632Z,4.1
2023-05-02T15:17:45.614Z,4.1
2023-05-02T15:24:08.495Z,2.3
2023-05-02T15:30:28.586Z,2.3
2023-05-02T15:36:51.524Z,3.3
2023-05-02T15:43:11.505Z,3.3
2023-05-02T15:49:34.708Z,3
2023-05-02T15:55:54.558Z,3
2023-05-02T16:02:17.488Z,3.9
2023-05-02T16:08:37.603Z,3.9
2023-05-02T16:15:01.879Z,1.5
2023-05-02T16:21:20.592Z,1.5
2023-05-02T16:27:43.528Z,3.3
2023-05-02T16:34:03.504Z,3.3
2023-05-02T16:40:28.295Z,5.2
2023-05-02T16:46:46.546Z,5.2
2023-05-02T16:53:09.532Z,4.5
2023-05-02T16:59:29.510Z,4.5
2023-05-02T17:05:52.528Z,3.5
2023-05-02T17:12:12.684Z,3.5
2023-05-02T17:18:35.489Z,1.5
2023-05-02T17:24:55.556Z,1.5
2023-05-02T17:31:18.492Z,1.9
2023-05-02T17:37:38.486Z,1.9
2023-05-02T17:44:01.604Z,2
2023-05-02T17:50:21.493Z,2
2023-05-02T17:56:44.556Z,2.2
2023-05-02T18:03:04.655Z,2.2
2023-05-02T18:09:27.703Z,2.5
2023-05-02T18:15:47.598Z,2.5
2023-05-02T18:22:10.568Z,1.7
2023-05-02T18:28:30.628Z,1.7
2023-05-02T18:34:53.537Z,2
2023-05-02T18:41:13.524Z,2
2023-05-02T18:47:36.653Z,1.3
2023-05-02T18:53:56.535Z,1.3
2023-05-02T19:00:19.612Z,1.6
2023-05-02T19:06:39.566Z,1.6
2023-05-02T19:13:02.510Z,0.6
2023-05-02T19:19:22.568Z,0.6
2023-05-02T19:25:45.493Z,1.3
2023-05-02T19:32:05.579Z,1.3
2023-05-02T19:47:57.489Z,1.2
2023-05-02T19:54:17.471Z,1.2
2023-05-02T20:00:40.468Z,2.9
2023-05-02T20:07:00.542Z,2.9
2023-05-02T20:13:23.533Z,1.5
2023-05-02T20:19:43.537Z,1.5
2023-05-02T20:26:06.536Z,2.6
2023-05-02T20:32:26.698Z,2.6
2023-05-02T20:38:49.528Z,2.7
2023-05-02T20:45:09.496Z,2.7
2023-05-02T20:51:32.610Z,4
2023-05-02T20:57:52.547Z,4
2023-05-02T21:04:15.624Z,1.8
2023-05-02T21:10:35.620Z,1.8
2023-05-02T21:16:58.536Z,2.9
2023-05-02T21:23:18.575Z,2.9
2023-05-02T21:29:41.504Z,3.2
2023-05-02T21:36:01.592Z,3.2
2023-05-02T21:42:24.586Z,2.3
2023-05-02T21:48:44.577Z,2.3
2023-05-02T21:55:07.535Z,3.9
2023-05-02T22:01:27.717Z,3.9
2023-05-02T22:24:25.591Z,5.4
2023-05-02T22:30:45.458Z,5.4
2023-05-02T22:37:08.528Z,5.4
2023-05-02T22:43:28.638Z,5.4
2023-05-02T22:49:51.672Z,2.7
2023-05-02T22:56:11.683Z,2.7
2023-05-02T23:02:34.899Z,2.6
2023-05-02T23:08:54.596Z,2.6
2023-05-02T23:15:17.598Z,2.5
2023-05-02T23:21:37.579Z,2.5
2023-05-02T23:28:00.691Z,3.1
2023-05-02T23:34:20.653Z,3.1
2023-05-02T23:40:43.708Z,3.3
2023-05-02T23:47:03.752Z,3.3
2023-05-02T23:53:26.709Z,4.6
2023-05-02T23:59:46.676Z,4.6
